Flight Track Log - Related Links

Times and Time Zones

All times are in EST time to prevent confusion due to time zone crossing. See the UAL563 flight status page for this flight to view local times or setup timezone preferences in your user account.

Time Position Orientation Groundspeed Altitude Reporting Facility
EST Latitude Longitude Course Direction KTS MPH feet Rate Location/Type
Sun 04:42:46 PM 39.8667 -75.2667 308° West 157 181 500  Level Philadelphia TRACON
Sun 04:43:52 PM 39.8500 -75.3333 252° West 195 224 2,800 2,524 Climbing Philadelphia TRACON
Sun 04:44:52 PM 39.8333 -75.4167 255° West 223 257 5,800 3,263 Climbing Philadelphia TRACON
Sun 04:45:46 PM 39.8333 -75.4667 270° West 228 262 9,000 3,089 Climbing Philadelphia TRACON
Sun 04:46:00 PM 39.9729 -75.6874 270° West  Level Estimated
Sun 04:46:33 PM 39.8919 -75.4894 343° North 262 302 11,000  Level New York Center
Sun 04:47:00 PM 39.9978 -75.7992 308° West  Level Estimated
Sun 04:51:58 PM 40.2770 -75.6430 343° North 100 115 16,800  Level FlightAware ADS-B
Sun 04:52:35 PM 40.2870 -75.6580 311° West 100 115 16,800  Level FlightAware ADS-B
Sun 04:52:59 PM 40.2940 -75.6670 316° Northwest 100 115 16,800  Level FlightAware ADS-B
Sun 04:53:35 PM 40.3030 -75.6810 310° West 100 115 16,800  Level FlightAware ADS-B
Sun 04:54:35 PM 40.3190 -75.7030 314° West 100 115 16,800 2,700 Level FlightAware ADS-B
Sun 04:55:55 PM 40.4650 -76.0440 299° West 314 361 23,100 3,214 Climbing FlightAware ADS-B
Sun 04:56:55 PM 40.4840 -76.1600 282° West 325 374 24,300 1,560 Climbing FlightAware ADS-B
Sun 04:57:35 PM 40.4970 -76.2410 282° West 326 375 25,700 2,031 Climbing FlightAware ADS-B
Sun 04:58:00 PM 40.5050 -76.2920 282° West 326 375 26,500 1,500 Climbing FlightAware ADS-B
Sun 04:58:55 PM 40.5210 -76.3920 282° West 333 383 27,700 956 Climbing FlightAware ADS-B
Sun 04:59:53 PM 40.5380 -76.5040 281° West 357 411 28,300 383 Climbing FlightAware ADS-B
Sun 05:00:29 PM 40.5480 -76.5700 281° West 357 411 28,300  Level FlightAware ADS-B
Sun 05:01:17 PM 40.5610 -76.6570 281° West 357 411 28,300  Level FlightAware ADS-B
Sun 05:01:53 PM 40.5700 -76.7220 280° West 357 411 28,300  Level FlightAware ADS-B
Sun 05:02:42 PM 40.5840 -76.8110 282° West 357 411 28,300  Level FlightAware ADS-B
Sun 05:03:19 PM 40.5930 -76.8780 280° West 357 411 28,300 3,081 Level FlightAware ADS-B
Sun 05:04:33 PM 40.5989 -77.1261 280° West 342 394 34,000 2,515 Climbing New York Center
Sun 05:05:35 PM 40.6089 -77.2503 276° West 342 394 34,000  Level New York Center
Sun 05:06:35 PM 40.6228 -77.3744 278° West 342 394 34,000  Level New York Center
Sun 05:08:56 PM 40.6444 -77.6675 276° West 343 395 34,000  Level Cleveland Center
Sun 05:09:58 PM 40.6542 -77.7894 276° West 338 389 34,000 -48 Level Cleveland Center
Sun 05:11:00 PM 40.6703 -77.9106 280° West 337 388 33,900 -48 Descending Cleveland Center
Sun 05:12:02 PM 40.6875 -78.0308 281° West 335 386 33,900 48 Level Cleveland Center
Sun 05:13:04 PM 40.7042 -78.1514 280° West 336 387 34,000 48 Climbing Cleveland Center
Sun 05:14:06 PM 40.7211 -78.2733 280° West 339 390 34,000  Level Cleveland Center
Sun 05:15:08 PM 40.7408 -78.4197 280° West 339 390 34,000 -48 Level Cleveland Center
Sun 05:16:10 PM 40.7581 -78.5411 281° West 338 389 33,900  Descending Cleveland Center
Sun 05:17:12 PM 40.7742 -78.6631 280° West 337 388 34,000 48 Climbing Cleveland Center
Sun 05:18:14 PM 40.7903 -78.7856 280° West 337 388 34,000  Level Cleveland Center
Sun 05:19:16 PM 40.8064 -78.9086 280° West 339 390 34,000  Level Cleveland Center
Sun 05:20:18 PM 40.8244 -79.0375 281° West 339 390 34,000 -48 Level Cleveland Center
Sun 05:21:20 PM 40.8392 -79.1581 279° West 335 386 33,900  Descending Cleveland Center
Sun 05:22:22 PM 40.8553 -79.2797 280° West 336 387 34,000 48 Climbing Cleveland Center
Sun 05:23:24 PM 40.8736 -79.4250 280° West 336 387 34,000  Level Cleveland Center
Sun 05:24:26 PM 40.8886 -79.5475 279° West 339 390 34,000  Level Cleveland Center
Sun 05:25:29 PM 40.9039 -79.6703 279° West 339 390 34,000  Level Cleveland Center
Sun 05:26:31 PM 40.9181 -79.7925 279° West 339 390 34,000  Level Cleveland Center
Sun 05:27:33 PM 40.9333 -79.9142 279° West 338 389 34,000 -48 Level Cleveland Center
Sun 05:28:35 PM 40.9508 -80.0606 279° West 338 389 33,900  Descending Cleveland Center
Sun 05:29:37 PM 40.9658 -80.1825 279° West 338 389 34,000 48 Climbing Cleveland Center
Sun 05:30:39 PM 40.9800 -80.3069 279° West 342 394 34,000  Level Cleveland Center
Sun 05:31:41 PM 40.9958 -80.4297 280° West 341 392 34,000  Level Cleveland Center
Sun 05:32:43 PM 41.0106 -80.5533 279° West 341 392 34,000  Level Cleveland Center
Sun 05:33:45 PM 41.0281 -80.7028 279° West 345 397 34,000  Level Cleveland Center
Sun 05:34:47 PM 41.0419 -80.8272 278° West 344 396 34,000  Level Cleveland Center
Sun 05:35:49 PM 41.0528 -80.9517 277° West 342 394 34,000  Level Cleveland Center
Sun 05:36:51 PM 41.0608 -81.0908 274° West 347 399 34,000 -48 Level Cleveland Center
Sun 05:37:54 PM 41.0686 -81.2189 275° West 345 397 33,900  Descending Cleveland Center
Sun 05:38:56 PM 41.0772 -81.3469 275° West 345 397 34,000 48 Climbing Cleveland Center
Sun 05:39:58 PM 41.0844 -81.4767 274° West 348 400 34,000  Level Cleveland Center
Sun 05:41:00 PM 41.0933 -81.6067 275° West 349 402 34,000 -48 Level Cleveland Center
Sun 05:42:02 PM 41.1006 -81.7364 274° West 346 398 33,900  Descending Cleveland Center
Sun 05:43:04 PM 41.1083 -81.8669 275° West 347 399 34,000 48 Climbing Cleveland Center
Sun 05:44:06 PM 41.1158 -81.9981 274° West 351 404 34,000  Level Cleveland Center
Sun 05:45:08 PM 41.1239 -82.1522 274° West 355 409 34,000  Level Cleveland Center
Sun 05:46:10 PM 41.1311 -82.2850 274° West 356 410 34,000  Level Cleveland Center
Sun 05:47:12 PM 41.1383 -82.4150 274° West 353 406 34,000  Level Cleveland Center
Sun 05:48:14 PM 41.1453 -82.5475 274° West 355 409 34,000  Level Cleveland Center
Sun 05:49:16 PM 41.1522 -82.6808 274° West 358 412 34,000  Level Cleveland Center
Sun 05:50:18 PM 41.1586 -82.8136 274° West 358 412 34,000  Level Cleveland Center
Sun 05:51:21 PM 41.1658 -82.9467 274° West 358 412 34,000  Level Cleveland Center
Sun 05:52:23 PM 41.1725 -83.0794 274° West 358 412 34,000  Level Cleveland Center
Sun 05:53:25 PM 41.1786 -83.2150 273° West 360 414 34,000  Level Cleveland Center
Sun 05:54:27 PM 41.1853 -83.3469 274° West 358 412 34,000  Level Cleveland Center
Sun 05:55:29 PM 41.1922 -83.5072 273° West 361 415 34,000  Level Cleveland Center
Sun 05:56:31 PM 41.1981 -83.6428 273° West 366 421 34,000  Level Cleveland Center
Sun 05:57:33 PM 41.2044 -83.7769 274° West 364 419 34,000 -48 Level Cleveland Center
Sun 05:58:35 PM 41.2103 -83.9039 274° West 364 419 33,900  Descending Cleveland Center
Sun 05:59:37 PM 41.2156 -84.0381 273° West 365 420 34,000 48 Climbing Cleveland Center
Sun 06:00:39 PM 41.2219 -84.2000 273° West 366 421 34,000  Level Cleveland Center
Sun 06:01:41 PM 41.2269 -84.3353 273° West 367 422 34,000  Level Cleveland Center
Sun 06:02:43 PM 41.2297 -84.4714 272° West 368 423 34,000  Level Cleveland Center
Sun 06:03:45 PM 41.2339 -84.6083 272° West 369 425 34,000  Level Cleveland Center
Sun 06:04:48 PM 41.2378 -84.7469 272° West 375 432 34,000  Level Cleveland Center
Sun 06:05:50 PM 41.2428 -84.8856 273° West 376 433 34,000  Level Cleveland Center
Sun 06:06:52 PM 41.2483 -85.0531 273° West 376 433 34,000 -97 Level Cleveland Center
Sun 06:07:54 PM 41.2525 -85.1936 272° West 377 434 33,800 -826 Descending Cleveland Center
Sun 06:09:10 PM 41.2553 -85.3603 271° West 377 434 32,100 -1,696 Descending Chicago Center
Sun 06:10:12 PM 41.2597 -85.5003 272° West 376 433 29,900 -2,323 Descending Chicago Center
Sun 06:11:14 PM 41.2628 -85.6408 272° West 377 434 27,300 -2,274 Descending Chicago Center
Sun 06:12:16 PM 41.2664 -85.7858 272° West 390 449 25,200 -1,113 Descending Chicago Center
Sun 06:13:18 PM 41.2764 -85.9650 274° West 401 461 25,000 -97 Descending Chicago Center
Sun 06:14:20 PM 41.2925 -86.1111 278° West 399 459 25,000 -240 Level Chicago Center
Sun 06:15:23 PM 41.3436 -86.2411 298° West 396 456 24,500 -1,776 Descending Chicago Center
Sun 06:16:25 PM 41.4078 -86.3547 307° West 385 443 21,300 -2,952 Descending Chicago Center
Sun 06:17:27 PM 41.4728 -86.4667 308° West 381 438 18,400 -2,516 Descending Chicago Center
Sun 06:18:29 PM 41.5308 -86.5719 306° West 359 413 16,100 -2,952 Descending Chicago Center
Sun 06:19:31 PM 41.6003 -86.6947 307° West 346 398 12,300 -1,033 Descending Chicago Center
Sun 06:24:35 PM 41.9320 -86.9650 307° West 100 115 9,800 -453 Descending FlightAware ADS-B
Sun 06:25:02 PM 41.9410 -86.9730 327° Northwest 100 115 9,800 -133 Level FlightAware ADS-B
Sun 06:25:20 PM 41.9640 -87.0450 293° West 100 115 9,700 -113 Descending FlightAware ADS-B
Sun 06:25:55 PM 41.9810 -87.1010 292° West 304 350 9,700  Level FlightAware ADS-B
Sun 06:26:23 PM 41.9890 -87.1440 284° West 304 350 9,700 -522 Level FlightAware ADS-B
Sun 06:26:41 PM 41.9820 -87.1780 255° West 266 306 9,300 -421 Descending FlightAware ADS-B
Sun 06:27:20 PM 41.9820 -87.2330 270° West 266 306 9,300  Level FlightAware ADS-B
Sun 06:27:44 PM 41.9830 -87.2670 272° West 266 306 9,300  Level FlightAware ADS-B
Sun 06:27:56 PM 41.9830 -87.2840 270° West 266 306 9,300  Level FlightAware ADS-B
Sun 06:28:32 PM 41.9840 -87.3340 272° West 266 306 9,300 -1,643 Level FlightAware ADS-B
Sun 06:29:20 PM 41.9833 -87.4167 272° West 211 243 7,000 -1,725 Descending Chicago TRACON
Sun 06:29:52 PM 41.9825 -87.4500 268° West 206 237 7,000 -574 Level Chicago Center
Sun 06:30:54 PM 41.9825 -87.5278 270° West 209 241 6,100 -1,113 Descending Chicago Center
Sun 06:31:56 PM 41.9831 -87.6192 270° West 206 237 4,700 -1,258 Descending Chicago Center
Sun 06:32:58 PM 41.9842 -87.6967 271° West 208 239 3,500 -968 Descending Chicago Center
Sun 06:34:00 PM 41.9847 -87.7694 271° West 204 235 2,700 -871 Descending Chicago Center
Sun 06:35:02 PM 41.9839 -87.8275 269° West 184 212 1,700 -726 Descending Chicago Center
Sun 06:36:04 PM 41.9831 -87.8758 269° West 154 177 1,200 -484 Descending Chicago Center

Login

Don't have an account? Register now (free) for customized features, flight alerts, and more!